createdAt,value
2017-10-11T00:01:40.774Z,13.50
2017-10-11T00:04:08.240Z,13.60
2017-10-11T00:06:36.786Z,13.80
2017-10-11T00:09:04.296Z,13.80
2017-10-11T00:11:32.502Z,13.80
2017-10-11T00:14:00.076Z,13.90
2017-10-11T00:16:27.557Z,13.90
2017-10-11T00:18:55.051Z,13.90
2017-10-11T00:21:23.307Z,13.90
2017-10-11T00:23:50.839Z,13.90
2017-10-11T00:26:18.319Z,13.90
2017-10-11T00:28:45.827Z,13.90
2017-10-11T00:31:13.343Z,13.90
2017-10-11T00:33:40.822Z,13.80
2017-10-11T00:36:09.098Z,13.80
2017-10-11T00:38:37.340Z,13.70
2017-10-11T00:41:04.830Z,13.70
2017-10-11T00:43:33.067Z,13.60
2017-10-11T00:46:00.558Z,13.60
2017-10-11T00:48:28.830Z,13.40
2017-10-11T00:50:56.968Z,13.40
2017-10-11T00:53:24.677Z,13.30
2017-10-11T00:55:53.224Z,13.20
2017-10-11T00:58:20.993Z,13.20
2017-10-11T01:00:50.372Z,13.30
2017-10-11T01:03:18.438Z,13.10
2017-10-11T01:05:45.905Z,12.90
2017-10-11T01:08:13.406Z,13.00
2017-10-11T01:10:41.717Z,12.80
2017-10-11T01:13:09.344Z,12.80
2017-10-11T01:15:36.820Z,12.80
2017-10-11T01:18:04.298Z,12.80
2017-10-11T01:20:31.786Z,12.70
2017-10-11T01:22:59.825Z,12.70
2017-10-11T01:25:27.300Z,12.60
2017-10-11T01:27:54.767Z,12.70
2017-10-11T01:30:23.615Z,12.60
2017-10-11T01:32:51.085Z,12.50
2017-10-11T01:35:18.554Z,12.50
2017-10-11T01:37:46.179Z,12.50
2017-10-11T01:40:14.428Z,12.40
2017-10-11T01:42:42.005Z,12.40
2017-10-11T01:45:10.276Z,12.50
2017-10-11T01:47:38.806Z,12.50
2017-10-11T01:50:06.542Z,12.40
2017-10-11T01:52:34.049Z,12.50
2017-10-11T01:55:07.385Z,12.40
2017-10-11T01:57:34.917Z,12.40
2017-10-11T02:00:02.452Z,12.30
2017-10-11T02:02:30.369Z,12.20
2017-10-11T02:04:58.649Z,12.40
2017-10-11T02:07:26.147Z,12.40
2017-10-11T02:09:53.678Z,12.50
2017-10-11T02:12:21.209Z,12.50
2017-10-11T02:14:48.738Z,12.50
2017-10-11T02:17:16.413Z,12.50
2017-10-11T02:19:43.891Z,12.40
2017-10-11T02:22:12.290Z,12.30
2017-10-11T02:24:40.128Z,12.30
2017-10-11T02:27:08.360Z,12.50
2017-10-11T02:29:35.929Z,12.50
2017-10-11T02:32:03.555Z,12.50
2017-10-11T02:34:31.133Z,12.40
2017-10-11T02:36:58.641Z,12.40
2017-10-11T02:39:26.928Z,12.20
2017-10-11T02:41:55.186Z,12.10
2017-10-11T02:44:22.657Z,12.10
2017-10-11T02:46:51.289Z,12.10
2017-10-11T02:49:18.906Z,12.10
2017-10-11T02:51:47.211Z,12.10
2017-10-11T02:54:14.730Z,12.10
2017-10-11T02:56:42.258Z,12.00
2017-10-11T02:59:09.856Z,12.10
2017-10-11T03:01:38.168Z,12.10
2017-10-11T03:04:05.690Z,12.10
2017-10-11T03:06:34.615Z,12.00
2017-10-11T03:09:02.678Z,12.00
2017-10-11T03:11:30.161Z,12.00
2017-10-11T03:13:57.629Z,11.80
2017-10-11T03:16:25.134Z,11.90
2017-10-11T03:18:53.422Z,11.90
2017-10-11T03:21:22.684Z,11.70
2017-10-11T03:23:50.843Z,11.70
2017-10-11T03:26:18.373Z,11.60
2017-10-11T03:28:45.866Z,11.80
2017-10-11T03:31:14.282Z,11.80
2017-10-11T03:33:42.754Z,11.70
2017-10-11T03:36:10.237Z,11.60
2017-10-11T03:38:37.735Z,11.60
2017-10-11T03:41:05.251Z,11.60
2017-10-11T03:43:32.799Z,11.60
2017-10-11T03:46:00.560Z,11.60
2017-10-11T03:48:28.845Z,11.60
2017-10-11T03:50:56.319Z,11.60
2017-10-11T03:53:23.873Z,11.70
2017-10-11T03:55:51.352Z,11.70
2017-10-11T03:58:18.863Z,11.80
2017-10-11T04:00:47.483Z,11.70
2017-10-11T04:03:15.053Z,11.70
2017-10-11T04:05:42.536Z,11.70
2017-10-11T04:08:10.409Z,11.70
2017-10-11T04:10:39.472Z,11.80
2017-10-11T04:13:07.003Z,11.70
2017-10-11T04:15:34.496Z,11.70
2017-10-11T04:18:01.995Z,11.60
2017-10-11T04:20:30.222Z,11.50
2017-10-11T04:22:57.964Z,11.50
2017-10-11T04:25:25.568Z,11.40
2017-10-11T04:27:53.089Z,11.40
2017-10-11T04:30:20.559Z,11.40
2017-10-11T04:32:48.087Z,11.40
2017-10-11T04:35:16.279Z,11.20
2017-10-11T04:37:43.766Z,11.10
2017-10-11T04:40:11.250Z,11.00
2017-10-11T04:42:39.547Z,11.10
2017-10-11T04:45:07.559Z,11.10
2017-10-11T04:47:35.839Z,11.10
2017-10-11T04:50:03.306Z,11.30
2017-10-11T04:52:31.811Z,11.40
2017-10-11T04:55:00.108Z,11.40
2017-10-11T04:57:27.585Z,11.40
2017-10-11T04:59:55.309Z,11.50
2017-10-11T05:02:23.541Z,11.50
2017-10-11T05:04:51.060Z,11.50
2017-10-11T05:07:18.796Z,11.50
2017-10-11T05:09:46.365Z,11.50
2017-10-11T05:12:14.777Z,11.60
2017-10-11T05:14:42.451Z,11.50
2017-10-11T05:17:09.946Z,11.50
2017-10-11T05:19:37.431Z,11.60
2017-10-11T05:22:06.140Z,11.60
2017-10-11T05:24:33.623Z,11.60
2017-10-11T05:27:01.080Z,11.60
2017-10-11T05:29:28.745Z,11.60
2017-10-11T05:31:56.385Z,11.70
2017-10-11T05:34:23.869Z,11.70
2017-10-11T05:36:51.416Z,11.70
2017-10-11T05:39:18.890Z,11.80
2017-10-11T05:41:46.404Z,11.80
2017-10-11T05:44:14.325Z,11.80
2017-10-11T05:46:41.828Z,11.80
2017-10-11T05:49:09.319Z,11.70
2017-10-11T05:51:37.053Z,11.80
2017-10-11T05:54:04.528Z,11.70
2017-10-11T05:56:32.018Z,11.80
2017-10-11T05:58:59.527Z,11.80
2017-10-11T06:01:27.438Z,11.90
2017-10-11T06:03:54.916Z,12.00
2017-10-11T06:06:22.489Z,11.90
2017-10-11T06:08:50.722Z,12.00
2017-10-11T06:11:18.327Z,12.00
2017-10-11T06:13:47.004Z,12.10
2017-10-11T06:16:15.250Z,12.30
2017-10-11T06:18:42.738Z,12.20
2017-10-11T06:21:10.293Z,12.40
2017-10-11T06:23:38.575Z,12.60
2017-10-11T06:26:07.635Z,12.80
2017-10-11T06:28:35.122Z,12.70
2017-10-11T06:31:03.375Z,13.00
2017-10-11T06:33:30.873Z,13.00
2017-10-11T06:35:58.422Z,13.10
2017-10-11T06:38:26.668Z,13.40
2017-10-11T06:40:54.157Z,13.30
2017-10-11T06:43:22.402Z,13.60
2017-10-11T06:45:49.883Z,13.50
2017-10-11T06:48:18.191Z,13.60
2017-10-11T06:50:45.695Z,13.60
2017-10-11T06:53:13.188Z,13.70
2017-10-11T06:55:40.659Z,13.70
2017-10-11T06:58:08.329Z,13.70
2017-10-11T07:00:35.800Z,13.70
2017-10-11T07:03:03.267Z,13.80
2017-10-11T07:05:31.071Z,13.80
2017-10-11T07:07:59.353Z,13.90
2017-10-11T07:10:27.614Z,14.00
2017-10-11T07:12:55.977Z,14.10
2017-10-11T07:15:23.486Z,14.10
2017-10-11T07:17:50.949Z,14.20
2017-10-11T07:20:18.881Z,14.20
2017-10-11T07:22:47.249Z,14.20
2017-10-11T07:25:14.740Z,14.20
2017-10-11T07:27:43.163Z,14.30
2017-10-11T07:30:10.659Z,14.30
2017-10-11T07:32:38.914Z,14.30
2017-10-11T07:35:06.409Z,14.30
2017-10-11T07:37:34.006Z,14.40
2017-10-11T07:40:01.528Z,14.50
2017-10-11T07:42:29.331Z,14.50
2017-10-11T07:44:56.864Z,14.60
2017-10-11T07:47:24.332Z,14.60
2017-10-11T07:49:51.810Z,14.70
2017-10-11T07:52:19.292Z,14.70
2017-10-11T07:54:47.407Z,14.80
2017-10-11T07:57:15.033Z,14.90
2017-10-11T07:59:43.430Z,15.00
2017-10-11T08:02:10.918Z,14.90
2017-10-11T08:04:38.468Z,15.00
2017-10-11T08:07:05.929Z,15.00
2017-10-11T08:09:33.556Z,15.00
2017-10-11T08:12:01.812Z,15.00
2017-10-11T08:14:29.374Z,15.00
2017-10-11T08:16:56.917Z,15.10
2017-10-11T08:19:24.403Z,15.10
2017-10-11T08:21:53.372Z,15.20
2017-10-11T08:24:20.880Z,15.20
2017-10-11T08:26:58.307Z,15.30
2017-10-11T08:29:25.787Z,15.30
2017-10-11T08:31:53.254Z,15.30
2017-10-11T08:34:21.568Z,15.20
2017-10-11T08:36:49.114Z,15.20
2017-10-11T08:39:16.688Z,15.30
2017-10-11T08:41:44.719Z,15.40
2017-10-11T08:44:13.135Z,15.40
2017-10-11T08:46:40.694Z,15.40
2017-10-11T08:49:09.070Z,15.40
2017-10-11T08:51:36.580Z,15.50
2017-10-11T08:54:04.085Z,15.50
2017-10-11T08:56:31.593Z,15.50
2017-10-11T08:58:59.076Z,15.60
2017-10-11T09:01:27.351Z,15.50
2017-10-11T09:03:56.690Z,15.50
2017-10-11T09:06:24.610Z,15.40
2017-10-11T09:08:52.852Z,15.40
2017-10-11T09:11:20.366Z,15.30
2017-10-11T09:13:47.874Z,15.40
2017-10-11T09:16:15.370Z,15.30
2017-10-11T09:18:43.724Z,15.40
2017-10-11T09:21:11.199Z,15.40
2017-10-11T09:23:39.427Z,15.30
2017-10-11T09:26:06.983Z,15.30
2017-10-11T09:28:34.457Z,15.30
2017-10-11T09:31:02.669Z,15.30
2017-10-11T09:33:30.985Z,15.40
2017-10-11T09:35:58.553Z,15.30
2017-10-11T09:38:26.040Z,15.40
2017-10-11T09:40:53.576Z,15.40
2017-10-11T09:43:21.273Z,15.50
2017-10-11T09:45:49.541Z,15.50
2017-10-11T09:48:17.823Z,15.50
2017-10-11T09:50:46.143Z,15.40
2017-10-11T09:53:13.668Z,15.40
2017-10-11T09:55:42.188Z,15.60
2017-10-11T09:58:09.815Z,15.50
2017-10-11T10:00:38.059Z,15.50
2017-10-11T10:03:05.584Z,15.50
2017-10-11T10:05:33.768Z,15.50
2017-10-11T10:08:01.287Z,15.40
2017-10-11T10:10:28.774Z,15.40
2017-10-11T10:12:56.844Z,15.40
2017-10-11T10:15:24.399Z,15.50
2017-10-11T10:17:51.928Z,15.40
2017-10-11T10:20:20.233Z,15.40
2017-10-11T10:22:48.938Z,15.40
2017-10-11T10:25:16.402Z,15.30
2017-10-11T10:27:43.929Z,15.30
2017-10-11T10:30:11.425Z,15.30
2017-10-11T10:32:39.202Z,15.40
2017-10-11T10:35:06.706Z,15.40
2017-10-11T10:37:34.223Z,15.40
2017-10-11T10:40:01.730Z,15.40
2017-10-11T10:42:29.245Z,15.40
2017-10-11T10:44:57.666Z,15.40
2017-10-11T10:47:25.160Z,15.40
2017-10-11T10:49:52.681Z,15.40
2017-10-11T10:52:20.202Z,15.40
2017-10-11T10:54:48.427Z,15.50
2017-10-11T10:57:16.222Z,15.50
2017-10-11T10:59:44.438Z,15.50
2017-10-11T11:02:11.954Z,15.60
2017-10-11T11:04:39.611Z,15.70
2017-10-11T11:07:07.085Z,15.70
2017-10-11T11:09:35.611Z,15.80
2017-10-11T11:12:03.102Z,15.80
2017-10-11T11:14:30.637Z,15.90
2017-10-11T11:16:58.097Z,15.90
2017-10-11T11:19:25.646Z,15.90
2017-10-11T11:21:53.154Z,15.90
2017-10-11T11:24:20.654Z,15.90
2017-10-11T11:26:48.128Z,15.90
2017-10-11T11:29:15.605Z,15.90
2017-10-11T11:31:44.296Z,15.90
2017-10-11T11:34:11.993Z,15.90
2017-10-11T11:36:40.329Z,15.90
2017-10-11T11:39:07.814Z,15.90
2017-10-11T11:41:35.292Z,15.90
2017-10-11T11:44:03.519Z,16.00
2017-10-11T11:46:31.104Z,16.00
2017-10-11T11:48:58.606Z,16.00
2017-10-11T11:51:26.084Z,16.00
2017-10-11T11:53:53.624Z,16.00
2017-10-11T11:56:21.111Z,16.10
2017-10-11T11:58:48.601Z,16.00
2017-10-11T12:01:16.918Z,16.00
2017-10-11T12:03:44.593Z,16.00
2017-10-11T12:06:12.097Z,16.10
2017-10-11T12:08:39.644Z,16.20
2017-10-11T12:11:07.094Z,16.10
2017-10-11T12:13:34.556Z,16.10
2017-10-11T12:16:02.170Z,16.00
2017-10-11T12:18:29.667Z,16.00
2017-10-11T12:20:57.189Z,16.00
2017-10-11T12:23:24.708Z,15.90
2017-10-11T12:25:52.943Z,15.90
2017-10-11T12:28:20.429Z,15.90
2017-10-11T12:30:48.696Z,15.80
2017-10-11T12:33:16.227Z,15.80
2017-10-11T12:35:43.791Z,15.80
2017-10-11T12:38:11.274Z,15.80
2017-10-11T12:40:38.900Z,15.80
2017-10-11T12:43:06.377Z,15.80
2017-10-11T12:45:33.871Z,15.80
2017-10-11T12:48:02.188Z,15.70
2017-10-11T12:50:29.851Z,15.70
2017-10-11T12:52:57.567Z,15.70
2017-10-11T12:55:26.541Z,15.80
2017-10-11T12:57:54.786Z,15.90
2017-10-11T13:00:22.326Z,15.90
2017-10-11T13:02:49.854Z,16.00
2017-10-11T13:05:17.324Z,15.80
2017-10-11T13:07:45.597Z,16.00
2017-10-11T13:10:13.857Z,16.00
2017-10-11T13:12:41.351Z,16.00
2017-10-11T13:15:08.834Z,16.00
2017-10-11T13:17:36.373Z,16.00
2017-10-11T13:20:03.853Z,16.00
2017-10-11T13:22:31.367Z,15.80
2017-10-11T13:24:59.616Z,15.90
2017-10-11T13:27:27.114Z,15.90
2017-10-11T13:29:54.633Z,15.90
2017-10-11T13:32:22.107Z,15.90
2017-10-11T13:34:50.369Z,15.90
2017-10-11T13:37:18.612Z,15.80
2017-10-11T13:39:46.128Z,15.80
2017-10-11T13:42:13.698Z,15.90
2017-10-11T13:44:41.199Z,15.90
2017-10-11T13:47:08.685Z,16.00
2017-10-11T13:49:36.965Z,16.20
2017-10-11T13:52:05.207Z,16.20
2017-10-11T13:54:35.282Z,16.20
2017-10-11T13:57:02.840Z,16.30
2017-10-11T13:59:30.377Z,16.30
2017-10-11T14:01:58.643Z,16.50
2017-10-11T14:04:26.166Z,16.40
2017-10-11T14:06:53.813Z,16.60
2017-10-11T14:09:21.298Z,16.60
2017-10-11T14:11:48.786Z,16.80
2017-10-11T14:14:17.150Z,16.90
2017-10-11T14:16:44.631Z,16.90
2017-10-11T14:19:12.889Z,16.80
2017-10-11T14:21:40.370Z,16.80
2017-10-11T14:24:07.862Z,16.70
2017-10-11T14:26:35.487Z,16.60
2017-10-11T14:29:03.356Z,16.70
2017-10-11T14:31:31.719Z,16.70
2017-10-11T14:34:00.088Z,16.70
2017-10-11T14:36:28.130Z,16.70
2017-10-11T14:38:55.623Z,16.70
2017-10-11T14:41:23.746Z,16.70
2017-10-11T14:43:51.290Z,16.70
2017-10-11T14:46:18.770Z,16.80
2017-10-11T14:48:46.262Z,16.80
2017-10-11T14:51:13.761Z,16.80
2017-10-11T14:53:41.513Z,16.80
2017-10-11T14:56:09.003Z,16.80
2017-10-11T14:58:36.831Z,16.80
2017-10-11T15:01:04.468Z,16.80
2017-10-11T15:03:32.769Z,16.80
2017-10-11T15:06:01.051Z,16.80
2017-10-11T15:08:28.551Z,16.80
2017-10-11T15:10:56.096Z,16.80
2017-10-11T15:13:23.578Z,16.70
2017-10-11T15:15:51.869Z,16.70
2017-10-11T15:18:19.379Z,16.70
2017-10-11T15:20:46.900Z,16.70
2017-10-11T15:23:15.223Z,16.70
2017-10-11T15:25:42.809Z,16.60
2017-10-11T15:28:10.314Z,16.60
2017-10-11T15:30:37.855Z,16.60
2017-10-11T15:33:06.319Z,16.50
2017-10-11T15:35:34.032Z,16.50
2017-10-11T15:38:01.578Z,16.40
2017-10-11T15:40:29.099Z,16.40
2017-10-11T15:42:56.616Z,16.40
2017-10-11T15:45:24.271Z,16.40
2017-10-11T15:47:51.761Z,16.40
2017-10-11T15:50:19.286Z,16.40
2017-10-11T15:52:46.846Z,16.30
2017-10-11T15:55:14.427Z,16.30
2017-10-11T15:57:41.988Z,16.30
2017-10-11T16:00:09.568Z,16.20
2017-10-11T16:02:37.182Z,16.20
2017-10-11T16:05:04.681Z,16.30
2017-10-11T16:07:32.973Z,16.20
2017-10-11T16:10:01.240Z,16.20
2017-10-11T16:12:29.493Z,16.10
2017-10-11T16:14:57.062Z,16.10
2017-10-11T16:17:24.561Z,16.00
2017-10-11T16:19:52.803Z,16.00
2017-10-11T16:22:20.726Z,16.00
2017-10-11T16:24:48.553Z,15.90
2017-10-11T16:27:16.799Z,15.80
2017-10-11T16:29:44.400Z,15.80
2017-10-11T16:32:12.632Z,15.70
2017-10-11T16:34:40.106Z,15.70
2017-10-11T16:37:07.714Z,15.70
2017-10-11T16:39:35.232Z,15.70
2017-10-11T16:42:02.734Z,15.70
2017-10-11T16:44:30.276Z,15.60
2017-10-11T16:46:57.753Z,15.60
2017-10-11T16:49:26.098Z,15.60
2017-10-11T16:51:54.386Z,15.50
2017-10-11T16:54:21.867Z,15.50
2017-10-11T16:56:49.627Z,15.40
2017-10-11T16:59:17.127Z,15.30
2017-10-11T17:01:44.726Z,15.20
2017-10-11T17:04:12.204Z,15.10
2017-10-11T17:06:39.720Z,15.00
2017-10-11T17:09:08.027Z,14.70
2017-10-11T17:11:35.567Z,14.70
2017-10-11T17:14:03.093Z,14.60
2017-10-11T17:16:30.602Z,14.50
2017-10-11T17:18:58.089Z,14.40
2017-10-11T17:21:25.715Z,14.30
2017-10-11T17:23:53.337Z,14.10
2017-10-11T17:26:21.662Z,14.00
2017-10-11T17:28:49.204Z,14.10
2017-10-11T17:31:16.785Z,14.00
2017-10-11T17:33:44.342Z,14.00
2017-10-11T17:36:11.920Z,14.00
2017-10-11T17:38:39.428Z,14.00
2017-10-11T17:41:06.952Z,13.90
2017-10-11T17:43:34.488Z,13.90
2017-10-11T17:46:02.019Z,13.90
2017-10-11T17:48:29.529Z,13.80
2017-10-11T17:50:57.314Z,13.70
2017-10-11T17:53:24.807Z,13.80
2017-10-11T17:55:52.290Z,13.80
2017-10-11T17:58:19.855Z,13.90
2017-10-11T18:00:47.428Z,14.00
2017-10-11T18:03:14.954Z,14.10
2017-10-11T18:05:42.434Z,14.10
2017-10-11T18:08:09.978Z,14.20
2017-10-11T18:10:37.489Z,14.20
2017-10-11T18:13:06.625Z,14.30
2017-10-11T18:15:34.181Z,14.30
2017-10-11T18:18:02.685Z,14.30
2017-10-11T18:20:30.271Z,14.40
2017-10-11T18:22:57.879Z,14.40
2017-10-11T18:25:25.380Z,14.40
2017-10-11T18:27:52.922Z,14.50
2017-10-11T18:30:20.396Z,14.50
2017-10-11T18:32:47.882Z,14.60
2017-10-11T18:35:16.257Z,14.60
2017-10-11T18:37:44.715Z,14.60
2017-10-11T18:40:12.212Z,14.60
2017-10-11T18:42:40.602Z,14.60
2017-10-11T18:45:08.164Z,14.60
2017-10-11T18:47:36.569Z,14.50
2017-10-11T18:50:04.038Z,14.50
2017-10-11T18:52:31.581Z,14.50
2017-10-11T18:54:59.090Z,14.40
2017-10-11T18:57:27.378Z,14.40
2017-10-11T18:59:54.929Z,14.40
2017-10-11T19:02:22.413Z,14.40
2017-10-11T19:04:49.965Z,14.40
2017-10-11T19:07:18.329Z,14.40
2017-10-11T19:09:45.970Z,14.40
2017-10-11T19:12:14.431Z,14.50
2017-10-11T19:14:41.985Z,14.50
2017-10-11T19:17:09.519Z,14.50
2017-10-11T19:19:37.452Z,14.60
2017-10-11T19:22:05.883Z,14.80
2017-10-11T19:24:33.371Z,14.70
2017-10-11T19:27:01.661Z,14.80
2017-10-11T19:29:30.913Z,14.80
2017-10-11T19:31:58.477Z,14.80
2017-10-11T19:34:26.072Z,14.80
2017-10-11T19:36:54.357Z,14.60
2017-10-11T19:39:22.619Z,14.50
2017-10-11T19:41:50.967Z,14.50
2017-10-11T19:44:18.420Z,14.40
2017-10-11T19:46:45.972Z,14.40
2017-10-11T19:49:13.493Z,14.40
2017-10-11T19:51:41.746Z,14.30
2017-10-11T19:54:09.264Z,14.30
2017-10-11T19:56:36.816Z,14.30
2017-10-11T19:59:04.377Z,14.20
2017-10-11T20:01:32.000Z,14.20
2017-10-11T20:03:59.522Z,14.30
2017-10-11T20:06:27.035Z,14.30
2017-10-11T20:08:54.626Z,14.20
2017-10-11T20:11:22.166Z,14.20
2017-10-11T20:13:49.729Z,14.20
2017-10-11T20:16:17.591Z,14.20
2017-10-11T20:18:45.114Z,14.20
2017-10-11T20:21:13.429Z,14.10
2017-10-11T20:23:41.647Z,14.10
2017-10-11T20:26:09.128Z,14.10
2017-10-11T20:28:37.479Z,14.10
2017-10-11T20:31:05.107Z,14.00
2017-10-11T20:33:32.618Z,14.00
2017-10-11T20:36:00.856Z,14.00
2017-10-11T20:38:28.382Z,14.00
2017-10-11T20:40:55.901Z,14.00
2017-10-11T20:43:23.381Z,13.90
2017-10-11T20:45:50.859Z,13.90
2017-10-11T20:48:18.961Z,13.90
2017-10-11T20:50:46.447Z,13.90
2017-10-11T20:53:15.296Z,14.10
2017-10-11T20:55:42.829Z,14.10
2017-10-11T20:58:10.427Z,14.30
2017-10-11T21:00:37.914Z,14.30
2017-10-11T21:03:06.188Z,14.40
2017-10-11T21:05:34.426Z,14.40
2017-10-11T21:08:01.956Z,14.40
2017-10-11T21:10:29.432Z,14.50
2017-10-11T21:12:56.939Z,14.50
2017-10-11T21:15:25.186Z,14.70
2017-10-11T21:17:52.951Z,14.70
2017-10-11T21:20:21.400Z,14.70
2017-10-11T21:22:48.911Z,14.70
2017-10-11T21:25:17.154Z,14.80
2017-10-11T21:27:44.633Z,14.70
2017-10-11T21:30:12.178Z,14.70
2017-10-11T21:32:39.635Z,14.70
2017-10-11T21:35:07.958Z,14.70
2017-10-11T21:37:35.472Z,14.70
2017-10-11T21:40:02.948Z,14.70
2017-10-11T21:42:31.212Z,14.50
2017-10-11T21:44:58.975Z,14.50
2017-10-11T21:47:26.488Z,14.30
2017-10-11T21:49:53.991Z,14.20
2017-10-11T21:52:21.557Z,14.20
2017-10-11T21:54:49.864Z,14.20
2017-10-11T21:57:18.817Z,14.30
2017-10-11T21:59:46.530Z,14.30
2017-10-11T22:02:14.039Z,14.30
2017-10-11T22:04:41.519Z,14.30
2017-10-11T22:07:19.787Z,14.40
2017-10-11T22:09:47.276Z,14.40
2017-10-11T22:12:14.753Z,14.40
2017-10-11T22:14:43.192Z,14.20
2017-10-11T22:17:10.667Z,14.20
2017-10-11T22:19:38.340Z,14.20
2017-10-11T22:28:53.693Z,13.80
2017-10-11T22:31:21.193Z,13.80
2017-10-11T22:33:48.663Z,13.80
2017-10-11T22:36:16.186Z,13.80
2017-10-11T22:38:43.955Z,13.90
2017-10-11T22:41:11.473Z,13.90
2017-10-11T22:43:39.757Z,14.10
2017-10-11T22:46:07.244Z,14.10
2017-10-11T22:48:34.754Z,14.10
2017-10-11T22:51:03.837Z,14.10
2017-10-11T22:53:31.589Z,14.00
2017-10-11T22:55:59.129Z,13.90
2017-10-11T22:58:27.061Z,13.90
2017-10-11T23:00:54.748Z,13.80
2017-10-11T23:03:22.260Z,13.70
2017-10-11T23:05:50.766Z,13.60
2017-10-11T23:08:18.246Z,13.60
2017-10-11T23:10:46.557Z,13.60
2017-10-11T23:13:14.025Z,13.60
2017-10-11T23:15:42.339Z,13.70
2017-10-11T23:18:09.898Z,13.70
2017-10-11T23:20:37.445Z,13.90
2017-10-11T23:23:04.979Z,14.00
2017-10-11T23:25:32.560Z,14.10
2017-10-11T23:28:00.039Z,14.10
2017-10-11T23:30:28.452Z,14.10
2017-10-11T23:32:56.040Z,14.00
2017-10-11T23:35:23.652Z,14.00
2017-10-11T23:37:51.506Z,14.00
2017-10-11T23:40:18.986Z,14.00
2017-10-11T23:42:46.491Z,14.00
2017-10-11T23:45:14.733Z,14.10
2017-10-11T23:47:42.401Z,14.00
2017-10-11T23:50:09.950Z,14.00
2017-10-11T23:52:37.698Z,14.00
2017-10-11T23:55:05.915Z,14.00
2017-10-11T23:57:34.141Z,13.90
